Terminal Aerodrome Forecast
Issued by NWS

Home | Current Version | Previous Version | Text Only | Print | Product List | Glossary On
Versions: 1 2 3 4 5 6 7 8 9 10 11 12
000
FTUS45 KREV 181735
TAFMMH
TAF
KMMH 181735Z 1818/1918 13008KT P6SM BKN200
     FM182300 28010KT P6SM SCT180
     FM190400 VRB04KT P6SM SKC=

USA.gov is the U.S. government's official web portal to all federal, state and local government web resources and services.